Weather History for Clovis, NM

Change the Weather History Date:

Wednesday, February 26, 2014

  Actual Average Record
Temperature  
Mean Temperature 30 °F -  
Max Temperature 44 °F 59 °F 83 °F (1989)
Min Temperature 17 °F 29 °F 5 °F (1960)
Degree Days  
Heating Degree Days 34    
Moisture  
Dew Point 16 °F    
Average Humidity 62    
Maximum Humidity 79    
Minimum Humidity 42    
Precipitation  
Precipitation 0.00 in - - ()
Sea Level Pressure  
Sea Level Pressure 30.15 in    
Wind  
Wind Speed 16 mph (SW)    
Max Wind Speed 32 mph    
Max Gust Speed 39 mph    
Visibility 10 miles    
Events      
Averages and records for this station are not official NWS values.
T = Trace of Precipitation, MM = Missing Value Source: NWS Daily Summary

Daily Weather History Graph

Daily Weather History Graph

Search for Another Location

Airport:

Trip Planner

Search our weather history database for the weather conditions in past years. The results will help you decide how hot, cold, wet, or windy it might be!

Date:

Astronomy

Feb. 26, 2014 Rise Set
Actual Time 6:24 AM MST 5:45 PM MST
Civil Twilight 5:59 AM MST 6:11 PM MST
Nautical Twilight 5:30 AM MST 6:40 PM MST
Astronomical Twilight 5:01 AM MST 7:09 PM MST
Moon 4:07 AM MST 3:07 PM MST
Length of Visible Light 12h 11m
Length of Day
11h 20m
Waning Crescent, 9% of the Moon is Illuminated
Feb 26
Waning Crescent
Mar 1
New
Mar 8
First Quarter
Mar 16
Full
Mar 23
Last Quarter

Hourly Weather History & Observations

Time (MST) Temp. Windchill Dew Point Humidity Pressure Visibility Wind Dir Wind Speed Gust Speed Precip Events Conditions
12:15 AM 21.2 °F 2.4 °F 10.4 °F 63% 30.29 in 9.0 mi NNE 32.2 mph 39.1 mph N/A   Overcast
12:35 AM 19.4 °F 0.5 °F 10.4 °F 68% 30.28 in 10.0 mi NE 29.9 mph 35.7 mph N/A   Overcast
12:55 AM 19.4 °F 1.1 °F 10.4 °F 68% 30.28 in 10.0 mi NE 27.6 mph 36.8 mph N/A   Overcast
1:15 AM 19.4 °F 1.1 °F 10.4 °F 68% 30.30 in 7.0 mi NNE 27.6 mph 34.5 mph N/A   Overcast
1:35 AM 17.6 °F -0.6 °F 12.2 °F 79% 30.28 in 5.0 mi NE 25.3 mph 31.1 mph N/A   Overcast
1:55 AM 17.6 °F 0.9 °F 12.2 °F 79% 30.29 in 5.0 mi NE 20.7 mph - N/A   Overcast
2:15 AM 17.6 °F 0.5 °F 12.2 °F 79% 30.29 in 7.0 mi NE 21.9 mph 27.6 mph N/A   Overcast
2:35 AM 17.6 °F 0.9 °F 10.4 °F 73% 30.28 in 9.0 mi NNE 20.7 mph 25.3 mph N/A   Overcast
2:55 AM 17.6 °F 1.7 °F 10.4 °F 73% 30.28 in 7.0 mi NNE 18.4 mph - N/A   Overcast
3:15 AM 17.6 °F 3.2 °F 10.4 °F 73% 30.29 in 8.0 mi NNE 15.0 mph - N/A   Overcast
3:35 AM 17.6 °F 3.7 °F 10.4 °F 73% 30.29 in 8.0 mi NNE 13.8 mph - N/A   Overcast
3:55 AM 17.6 °F 5.7 °F 12.2 °F 79% 30.29 in 10.0 mi NNE 10.4 mph - N/A   Overcast
4:15 AM 17.6 °F 5.7 °F 12.2 °F 79% 30.29 in 10.0 mi NNE 10.4 mph - N/A   Overcast
4:35 AM 17.6 °F 5.0 °F 12.2 °F 79% 30.29 in 9.0 mi NNE 11.5 mph - N/A   Overcast
4:55 AM 17.6 °F 5.0 °F 12.2 °F 79% 30.27 in 10.0 mi NNE 11.5 mph - N/A   Overcast
5:15 AM 17.6 °F 6.4 °F 10.4 °F 73% 30.27 in 10.0 mi NNE 9.2 mph - N/A   Overcast
5:35 AM 17.6 °F 6.4 °F 12.2 °F 79% 30.28 in 10.0 mi North 9.2 mph - N/A   Overcast
5:55 AM 17.6 °F 5.0 °F 12.2 °F 79% 30.27 in 10.0 mi NNE 11.5 mph - N/A   Overcast
6:15 AM 17.6 °F 5.7 °F 12.2 °F 79% 30.27 in 10.0 mi NNE 10.4 mph - N/A   Overcast
6:35 AM 17.6 °F 8.2 °F 10.4 °F 73% 30.27 in 10.0 mi NNE 6.9 mph - N/A   Overcast
6:55 AM 17.6 °F 9.3 °F 10.4 °F 73% 30.27 in 10.0 mi NNE 5.8 mph - N/A   Overcast
7:15 AM 17.6 °F 10.7 °F 10.4 °F 73% 30.27 in 10.0 mi North 4.6 mph - N/A   Overcast
7:35 AM 17.6 °F 7.3 °F 12.2 °F 79% 30.27 in 10.0 mi North 8.1 mph - N/A   Overcast
7:55 AM 17.6 °F 9.3 °F 10.4 °F 73% 30.27 in 10.0 mi NNW 5.8 mph - N/A   Overcast
8:15 AM 19.4 °F 12.8 °F 10.4 °F 68% 30.26 in 10.0 mi WNW 4.6 mph - N/A   Overcast
8:35 AM 19.4 °F 14.3 °F 10.4 °F 68% 30.26 in 10.0 mi NW 3.5 mph - N/A   Overcast
8:55 AM 19.4 °F 14.3 °F 12.2 °F 74% 30.25 in 10.0 mi West 3.5 mph - N/A   Overcast
9:15 AM 21.2 °F 12.6 °F 12.2 °F 68% 30.25 in 10.0 mi WSW 6.9 mph - N/A   Overcast
9:35 AM 24.8 °F 15.3 °F 14.0 °F 64% 30.24 in 10.0 mi SW 9.2 mph - N/A   Overcast
9:55 AM 24.8 °F 14.0 °F 14.0 °F 64% 30.22 in 10.0 mi WSW 11.5 mph - N/A   Overcast
10:15 AM 26.6 °F 16.2 °F 15.8 °F 64% 30.22 in 10.0 mi WSW 11.5 mph - N/A   Overcast
10:35 AM 28.4 °F 18.0 °F 15.8 °F 59% 30.21 in 10.0 mi SW 12.7 mph - N/A   Overcast
10:55 AM 30.2 °F 20.8 °F 17.6 °F 60% 30.19 in 10.0 mi SW 11.5 mph - N/A   Overcast
11:15 AM 30.2 °F 19.8 °F 17.6 °F 60% 30.17 in 10.0 mi WSW 13.8 mph - N/A   Overcast
11:35 AM 32.0 °F 21.6 °F 19.4 °F 60% 30.16 in 10.0 mi SW 15.0 mph - N/A   Overcast
11:55 AM 33.8 °F 23.5 °F 19.4 °F 56% 30.14 in 10.0 mi WSW 16.1 mph 21.9 mph N/A   Overcast
12:15 PM 33.8 °F 22.8 °F 19.4 °F 56% 30.12 in 10.0 mi SW 18.4 mph 23.0 mph N/A   Overcast
12:35 PM 35.6 °F 25.5 °F 21.2 °F 56% 30.10 in 10.0 mi WSW 17.3 mph 23.0 mph N/A   Mostly Cloudy
12:55 PM 37.4 °F 29.3 °F 21.2 °F 52% 30.08 in 10.0 mi SW 12.7 mph 24.2 mph N/A   Partly Cloudy
1:15 PM 37.4 °F 28.9 °F 21.2 °F 52% 30.06 in 10.0 mi SW 13.8 mph 21.9 mph N/A   Clear
1:35 PM 39.2 °F 30.8 °F 23.0 °F 52% 30.04 in 10.0 mi SW 15.0 mph 19.6 mph N/A   Clear
1:55 PM 41.0 °F 33.9 °F 23.0 °F 49% 30.03 in 10.0 mi SSW 12.7 mph - N/A   Clear
2:15 PM 42.8 °F 36.6 °F 23.0 °F 46% 30.03 in 10.0 mi SW 11.5 mph 19.6 mph N/A   Clear
2:35 PM 42.8 °F 37.0 °F 23.0 °F 46% 30.02 in 10.0 mi SW 10.4 mph 17.3 mph N/A   Clear
2:55 PM 44.6 °F 38.8 °F 23.0 °F 43% 30.02 in 10.0 mi WSW 11.5 mph 16.1 mph N/A   Clear
3:15 PM 44.6 °F 38.8 °F 23.0 °F 43% 30.02 in 10.0 mi SW 11.5 mph 16.1 mph N/A   Clear
3:35 PM 44.6 °F 38.1 °F 23.0 °F 43% 30.01 in 10.0 mi SW 13.8 mph - N/A   Clear
3:55 PM 44.6 °F 40.2 °F 23.0 °F 43% 30.01 in 10.0 mi SSW 8.1 mph - N/A   Clear
4:15 PM 44.6 °F 39.7 °F 24.8 °F 46% 30.01 in 10.0 mi South 9.2 mph - N/A   Clear
4:35 PM 44.6 °F 40.7 °F 23.0 °F 43% 30.02 in 10.0 mi SW 6.9 mph - N/A   Clear
4:55 PM 44.6 °F 40.7 °F 23.0 °F 43% 30.02 in 10.0 mi SSW 6.9 mph - N/A   Clear
5:15 PM 44.6 °F 42.2 °F 23.0 °F 43% 30.02 in 10.0 mi South 4.6 mph - N/A   Clear
5:35 PM 42.8 °F 40.1 °F 21.2 °F 42% 30.03 in 10.0 mi South 4.6 mph - N/A   Clear
5:55 PM 39.2 °F 35.0 °F 21.2 °F 49% 30.03 in 10.0 mi SSE 5.8 mph - N/A   Clear
6:15 PM 37.4 °F 32.1 °F 19.4 °F 48% 30.04 in 10.0 mi SE 6.9 mph - N/A   Clear
6:35 PM 35.6 °F 29.9 °F 19.4 °F 52% 30.04 in 10.0 mi ESE 6.9 mph - N/A   Clear
6:55 PM 33.8 °F 27.7 °F 19.4 °F 56% 30.04 in 10.0 mi SE 6.9 mph - N/A   Clear
7:15 PM 35.6 °F 30.7 °F 19.4 °F 52% 30.06 in 10.0 mi ESE 5.8 mph - N/A   Clear
7:35 PM 32.0 °F 26.4 °F 17.6 °F 55% 30.06 in 10.0 mi ESE 5.8 mph - N/A   Clear
7:55 PM 32.0 °F 27.5 °F 17.6 °F 55% 30.07 in 10.0 mi ESE 4.6 mph - N/A   Clear
8:15 PM 30.2 °F 23.4 °F 19.4 °F 64% 30.07 in 10.0 mi ESE 6.9 mph - N/A   Clear
8:35 PM 30.2 °F 24.3 °F 17.6 °F 60% 30.06 in 10.0 mi East 5.8 mph - N/A   Clear
8:55 PM 30.2 °F 24.3 °F 17.6 °F 60% 30.07 in 10.0 mi ESE 5.8 mph - N/A   Clear
9:15 PM 30.2 °F 24.3 °F 17.6 °F 60% 30.07 in 10.0 mi ESE 5.8 mph - N/A   Clear
9:35 PM 30.2 °F 25.4 °F 17.6 °F 60% 30.07 in 10.0 mi SE 4.6 mph - N/A   Clear
9:55 PM 28.4 °F 22.2 °F 17.6 °F 64% 30.07 in 10.0 mi South 5.8 mph - N/A   Clear
10:15 PM 28.4 °F 20.4 °F 15.8 °F 59% 30.07 in 10.0 mi SSW 8.1 mph - N/A   Clear
10:35 PM 28.4 °F 21.2 °F 15.8 °F 59% 30.06 in 10.0 mi SW 6.9 mph - N/A   Clear
10:55 PM 26.6 °F 22.6 °F 15.8 °F 64% 30.06 in 10.0 mi SW 3.5 mph - N/A   Clear
11:15 PM 28.4 °F 23.3 °F 17.6 °F 64% 30.06 in 10.0 mi West 4.6 mph - N/A   Clear
11:35 PM 26.6 °F 19.1 °F 15.8 °F 64% 30.05 in 10.0 mi West 6.9 mph - N/A   Clear
11:55 PM 26.6 °F 17.5 °F 17.6 °F 69% 30.06 in 10.0 mi West 9.2 mph - N/A   Clear